Wheeling Ohio County Airport
KHLG : now visible

Airfield :











YOU CAN JOIN US ON...

 
LOGIN :

Register | Disclaimer

   EN    FR    IT 

 









Legend :    VFR   Marginal VFR   IFR   Intensive IFR   Very Intensive IFR
Visi :
Ceiling :
>= 8 km
>= 3000ft
5 to 8 km
1000 to 3000 ft
1500m to 5 km
500 to 1000 ft
800 to 1500m
200 to 500 ft
< 800m
< 200 ft
Symbols :   Thunderstorms  Fog  Heavy snow  Heavy precipitations  Wind > 20 kt






- Airport Elevation : 1195 ft


KHLG - Wheeling Ohio County

CURRENT METAR :
  • 020953Z AUTO 00000KT 6SM BR SCT005 OVC060 21/19 A2998 RMK AO2 RAB23E32 SLP146 P0000 T02060194

EXPIRED METARs :
  • 020937Z AUTO 00000KT 9SM BKN005 BKN060 OVC100 21/19 A2998 RMK AO2 RAB23E32 P0000 T02060194
  • 020928Z AUTO 32003KT 5SM -RA BR SCT005 SCT065 OVC100 20/19 A2999 RMK AO2 RAB23 P0000 T02000194
  • 020853Z AUTO 20004KT 7SM BKN065 BKN080 20/19 A2999 RMK AO2 SLP147 T02000194 53004
  • 020837Z AUTO 18004KT 6SM BR FEW075 20/19 A2998 RMK AO2 T02000194
  • 020830Z AUTO 17005KT 2 1/2SM BR CLR 20/19 A2997 RMK AO2 T02000194
  • 012153Z 20011KT 10SM CLR 28/22 A2999 RMK AO2 SLP147 T02830217
  • 020753Z AUTO 18004KT 9SM FEW075 SCT110 20/19 A2998 RMK AO2 SLP144 T02000189

TAF KHLG
Valid from the 02 at 10:00 until the 03 at 06:00 UTC


021017Z 0210/0306 21004KT 4SM BR OVC050
TEMPO 0210/0212 3SM -SHRA BR
FM021500 28010KT P6SM BKN050
KZOB FIR / North America



MET'MAP, your aeronautical weather chart ! - Copyright ORBIFLY December 2007 - Disclaimer

ORBIFLY MET'MAP TEAM :

Programming & Development : Alexandra Zaïnal
Original concept : Baudouin d'Aumeries
Technical & hardware support : Manuel Goepfert
Assistance : Marc-Olivier Méhu




SOURCES & CREDITS :

   NOAA       Earth
Advisory